Time;durP1;ratioP1;P1;durP2;ratioP2;P2;SDS_P1;SDS_P2;PMS_P1;PMS_P2;Temp;Humidity;BMP_temperature;BMP_pressure;BME280_temperature;BME280_humidity;BME280_pressure;Samples;Min_cycle;Max_cycle;Signal;HPM_P1;HPM_P2
2022/09/14 00:00:57;;;;;;;7.15;2.75;;;;;;;16.18;100.00;100793.88;5027044;28;20036;-67
2022/09/14 00:03:22;;;;;;;7.68;2.60;;;;;;;16.19;100.00;100793.91;5027105;28;20067;-67
2022/09/14 00:05:48;;;;;;;4.57;2.10;;;;;;;16.19;100.00;100787.81;5028528;28;20033;-66
2022/09/14 00:08:14;;;;;;;5.95;2.90;;;;;;;16.15;100.00;100784.31;5030970;28;20436;-67
2022/09/14 00:10:42;;;;;;;5.28;2.67;;;;;;;16.12;100.00;100788.63;5031093;28;20033;-66
2022/09/14 00:13:08;;;;;;;6.18;3.28;;;;;;;16.07;100.00;100776.38;5030561;28;20088;-67
2022/09/14 00:15:36;;;;;;;5.18;2.60;;;;;;;16.03;100.00;100774.59;5030646;28;20030;-67
2022/09/14 00:18:01;;;;;;;8.07;3.53;;;;;;;16.02;100.00;100766.75;5030697;28;20228;-67
2022/09/14 00:20:26;;;;;;;5.82;2.67;;;;;;;15.95;100.00;100755.34;5030791;28;20028;-67
2022/09/14 00:22:52;;;;;;;5.25;2.47;;;;;;;15.92;100.00;100757.94;5030558;28;20068;-66
2022/09/14 00:25:17;;;;;;;8.48;3.03;;;;;;;15.91;100.00;100758.78;5030855;28;20468;-67
2022/09/14 00:27:42;;;;;;;6.25;2.22;;;;;;;15.85;100.00;100749.16;5029955;28;20049;-67
2022/09/14 00:30:08;;;;;;;3.85;1.98;;;;;;;15.83;100.00;100756.97;5030560;28;20025;-68
2022/09/14 00:32:33;;;;;;;6.25;2.85;;;;;;;15.79;100.00;100750.00;5031041;28;20099;-67
2022/09/14 00:34:58;;;;;;;4.57;2.13;;;;;;;15.78;100.00;100752.56;5012204;28;20029;-67
2022/09/14 00:37:24;;;;;;;5.38;2.60;;;;;;;15.74;100.00;100746.44;5030167;28;20443;-67
2022/09/14 00:39:49;;;;;;;7.97;2.60;;;;;;;15.74;100.00;100746.44;5030490;28;20057;-67
2022/09/14 00:42:18;;;;;;;7.38;2.90;;;;;;;15.72;100.00;100742.97;5029990;28;20037;-66
2022/09/14 00:44:46;;;;;;;6.47;2.50;;;;;;;15.69;100.00;100743.78;5030099;28;20541;-67
2022/09/14 00:47:12;;;;;;;6.78;2.47;;;;;;;15.66;100.00;100745.50;5029447;28;20021;-66
2022/09/14 00:49:41;;;;;;;8.48;3.05;;;;;;;15.63;100.00;100733.31;5030499;28;20112;-66
2022/09/14 00:52:10;;;;;;;6.57;2.83;;;;;;;15.59;100.00;100727.19;5029933;28;20535;-66
2022/09/14 00:54:41;;;;;;;6.20;3.47;;;;;;;15.56;100.00;100727.13;5030159;28;20027;-66
2022/09/14 00:57:06;;;;;;;6.13;2.90;;;;;;;15.54;100.00;100718.41;5029342;28;20026;-66
2022/09/14 00:59:37;;;;;;;9.02;3.00;;;;;;;15.52;100.00;100712.31;5030137;28;20088;-66
2022/09/14 01:02:03;;;;;;;7.97;3.23;;;;;;;15.50;100.00;100706.19;5029975;28;20037;-66
2022/09/14 01:04:28;;;;;;;5.72;3.47;;;;;;;15.47;100.00;100708.78;5030203;28;20025;-66
2022/09/14 01:07:07;;;;;;;5.18;3.15;;;;;;;15.44;100.00;100706.13;5030048;28;20400;-66
2022/09/14 01:09:38;;;;;;;5.97;3.33;;;;;;;15.44;100.00;100711.34;5029674;28;20163;-66
2022/09/14 01:12:22;;;;;;;6.85;3.60;;;;;;;15.45;100.00;100710.50;5029806;28;20115;-66
2022/09/14 01:14:59;;;;;;;8.02;3.63;;;;;;;15.44;100.00;100698.28;5029954;28;20098;-66
2022/09/14 01:17:29;;;;;;;5.47;3.15;;;;;;;15.42;100.00;100692.19;5029267;28;20548;-66
2022/09/14 01:20:13;;;;;;;7.60;3.55;;;;;;;15.43;100.00;100688.72;5029202;28;20037;-66
2022/09/14 01:22:51;;;;;;;8.38;3.17;;;;;;;15.44;100.00;100698.28;5029578;28;20289;-66
2022/09/14 01:25:41;;;;;;;8.68;3.47;;;;;;;15.41;100.00;100687.81;5029959;28;20044;-66
2022/09/14 01:28:18;;;;;;;8.73;3.50;;;;;;;15.42;100.00;100689.56;5029263;28;20040;-66
2022/09/14 01:30:44;;;;;;;8.68;3.45;;;;;;;15.39;100.00;100690.44;5029277;28;20409;-66
2022/09/14 01:33:18;;;;;;;6.80;2.50;;;;;;;15.39;100.00;100702.59;5028919;28;20033;-65
2022/09/14 01:35:57;;;;;;;5.72;2.33;;;;;;;15.38;100.00;100700.88;5029185;28;20034;-66
2022/09/14 01:38:30;;;;;;;5.47;2.40;;;;;;;15.34;100.00;100695.59;5029662;28;20052;-66
2022/09/14 01:40:58;;;;;;;7.85;2.55;;;;;;;15.32;100.00;100697.34;5029493;28;20029;-66
2022/09/14 01:43:29;;;;;;;9.55;2.60;;;;;;;15.31;100.00;100699.94;5029088;28;20036;-66
2022/09/14 01:46:08;;;;;;;;;;;;;;;15.29;100.00;100697.28;5029352;28;20465;-65
2022/09/14 01:48:44;;;;;;;3.95;2.30;;;;;;;15.30;100.00;100692.94;5028630;28;19913;-66
2022/09/14 01:51:15;;;;;;;5.18;2.35;;;;;;;15.27;100.00;100687.69;5029454;28;20149;-66
2022/09/14 01:53:51;;;;;;;8.13;2.83;;;;;;;15.24;100.00;100684.19;5028576;28;20420;-65
2022/09/14 01:56:22;;;;;;;6.00;2.60;;;;;;;15.23;100.00;100686.78;5029170;28;20444;-66
2022/09/14 01:59:17;;;;;;;4.07;2.38;;;;;;;15.21;100.00;100681.56;5029160;28;20544;-65
2022/09/14 02:01:52;;;;;;;5.50;2.10;;;;;;;15.21;100.00;100683.28;5028841;28;20061;-65
2022/09/14 02:04:26;;;;;;;4.40;2.13;;;;;;;15.17;100.00;100685.00;5028950;28;20036;-65
2022/09/14 02:06:52;;;;;;;6.93;2.25;;;;;;;15.13;100.00;100683.19;5028894;28;20056;-65
2022/09/14 02:09:21;;;;;;;7.45;2.40;;;;;;;15.10;100.00;100683.16;5028455;28;20029;-65
2022/09/14 02:11:47;;;;;;;7.85;2.40;;;;;;;15.07;100.00;100676.19;5028969;28;20060;-65
2022/09/14 02:14:13;;;;;;;5.20;2.55;;;;;;;15.06;100.00;100674.44;5028648;28;20363;-66
2022/09/14 02:16:42;;;;;;;5.05;2.80;;;;;;;15.06;100.00;100674.44;5028988;28;20596;-65
2022/09/14 02:19:07;;;;;;;4.28;2.10;;;;;;;15.05;100.00;100682.25;5028645;28;20079;-66
2022/09/14 02:21:33;;;;;;;7.63;2.28;;;;;;;15.04;100.00;100683.13;5028584;28;20018;-66
2022/09/14 02:23:59;;;;;;;5.38;2.08;;;;;;;15.02;100.00;100679.63;5028205;28;20061;-65
2022/09/14 02:26:25;;;;;;;5.18;2.25;;;;;;;15.03;100.00;100682.25;5028219;28;20017;-65
2022/09/14 02:28:54;;;;;;;8.57;2.58;;;;;;;14.98;100.00;100683.91;5027161;28;20095;-65
2022/09/14 02:31:38;;;;;;;6.68;2.50;;;;;;;14.95;100.00;100681.28;5027621;28;20067;-66
2022/09/14 02:34:06;;;;;;;5.45;2.38;;;;;;;14.93;100.00;100683.84;5028191;28;20041;-66
2022/09/14 02:36:47;;;;;;;5.45;2.28;;;;;;;14.92;100.00;100676.00;5027814;28;20013;-65
2022/09/14 02:39:34;;;;;;;5.50;2.50;;;;;;;14.89;100.00;100680.34;5027565;28;20021;-66
2022/09/14 02:42:12;;;;;;;8.20;2.78;;;;;;;14.88;100.00;100681.19;5027699;28;20088;-65
2022/09/14 02:44:44;;;;;;;3.60;2.15;;;;;;;14.86;100.00;100672.47;5027930;28;20036;-66
2022/09/14 02:47:20;;;;;;;7.03;3.00;;;;;;;14.86;100.00;100682.03;5027866;28;20039;-65
2022/09/14 02:49:55;;;;;;;5.38;2.20;;;;;;;14.88;100.00;100675.97;5028080;28;20037;-65
2022/09/14 02:52:30;;;;;;;4.15;2.28;;;;;;;14.89;100.00;100674.25;5028092;28;20037;-66
2022/09/14 02:54:58;;;;;;;8.20;2.85;;;;;;;14.86;100.00;100677.69;5027651;28;20022;-65
2022/09/14 02:57:24;;;;;;;7.40;2.80;;;;;;;14.84;100.00;100671.56;5027588;28;20103;-65
2022/09/14 02:59:52;;;;;;;7.28;2.53;;;;;;;14.85;100.00;100667.25;5027728;28;20025;-65
2022/09/14 03:02:18;;;;;;;7.28;2.95;;;;;;;14.86;100.00;100667.25;5027325;28;20060;-65
2022/09/14 03:04:43;;;;;;;7.50;3.10;;;;;;;14.87;100.00;100671.63;5027840;28;20037;-65
2022/09/14 03:07:08;;;;;;;7.15;2.85;;;;;;;14.87;100.00;100668.16;5027631;28;20135;-66
2022/09/14 03:09:33;;;;;;;6.55;2.90;;;;;;;14.84;100.00;100666.34;5027526;28;20363;-65
2022/09/14 03:11:59;;;;;;;6.20;2.80;;;;;;;14.81;100.00;100660.19;5026805;28;20036;-65
2022/09/14 03:14:24;;;;;;;6.60;3.30;;;;;;;14.82;100.00;100654.19;5027436;28;20099;-65
2022/09/14 03:16:49;;;;;;;6.25;2.88;;;;;;;14.80;100.00;100651.53;5027356;28;20037;-65
2022/09/14 03:19:15;;;;;;;7.60;2.95;;;;;;;14.82;100.00;100647.19;5027070;28;20033;-65
2022/09/14 03:21:40;;;;;;;6.53;2.83;;;;;;;14.81;100.00;100652.38;5027197;28;20033;-65
2022/09/14 03:24:06;;;;;;;8.55;3.05;;;;;;;14.82;100.00;100656.78;5026644;28;20587;-65
2022/09/14 03:26:35;;;;;;;6.53;2.60;;;;;;;14.80;100.00;100648.91;5027268;28;20130;-65
2022/09/14 03:29:01;;;;;;;5.30;2.83;;;;;;;14.79;100.00;100643.69;5027451;28;20412;-66
2022/09/14 03:31:26;;;;;;;5.45;2.60;;;;;;;14.79;100.00;100644.53;5026898;28;20039;-65
2022/09/14 03:33:54;;;;;;;9.40;4.55;;;;;;;14.77;100.00;100644.53;5027299;28;20108;-65
2022/09/14 03:36:20;;;;;;;5.20;3.00;;;;;;;14.74;100.00;100635.78;5026800;28;20041;-66
2022/09/14 03:38:49;;;;;;;4.75;2.80;;;;;;;14.71;100.00;100641.88;5027123;28;20033;-65
2022/09/14 03:41:15;;;;;;;9.57;3.30;;;;;;;14.68;100.00;100635.72;5026810;28;20053;-66
2022/09/14 03:43:42;;;;;;;5.55;2.70;;;;;;;14.68;100.00;100630.50;5026941;28;20026;-65
2022/09/14 03:46:09;;;;;;;3.97;2.75;;;;;;;14.67;100.00;100627.03;5027114;28;20029;-65
2022/09/14 03:48:35;;;;;;;5.20;3.03;;;;;;;14.65;100.00;100632.22;5026496;28;20029;-65
2022/09/14 03:51:04;;;;;;;4.95;2.85;;;;;;;14.64;100.00;100620.03;5027292;28;20457;-65
2022/09/14 03:53:30;;;;;;;4.88;2.58;;;;;;;14.60;100.00;100613.03;5026713;28;20389;-65
2022/09/14 03:55:55;;;;;;;5.43;2.53;;;;;;;14.57;100.00;100606.91;5027230;28;20025;-66
2022/09/14 03:58:21;;;;;;;5.30;2.85;;;;;;;14.56;100.00;100619.06;5026375;28;20087;-65
2022/09/14 04:00:47;;;;;;;9.60;2.97;;;;;;;14.52;100.00;100618.16;5027405;28;20385;-66
2022/09/14 04:03:12;;;;;;;9.00;2.95;;;;;;;14.51;100.00;100618.16;5027363;28;20185;-66
2022/09/14 04:05:37;;;;;;;8.10;2.95;;;;;;;14.50;100.00;100604.22;5026952;28;20032;-66
2022/09/14 04:08:03;;;;;;;2.67;2.30;;;;;;;14.49;100.00;100605.09;5027258;28;20504;-66
2022/09/14 04:10:28;;;;;;;6.15;2.72;;;;;;;14.50;100.00;100601.63;5026256;28;20025;-66
2022/09/14 04:12:53;;;;;;;6.40;2.88;;;;;;;14.52;100.00;100609.47;5026513;28;20091;-66
2022/09/14 04:15:19;;;;;;;9.30;2.60;;;;;;;14.51;100.00;100607.72;5027035;28;20031;-66
2022/09/14 04:17:44;;;;;;;6.15;2.38;;;;;;;14.49;100.00;100610.31;5026786;28;20029;-66
2022/09/14 04:20:09;;;;;;;6.10;2.80;;;;;;;14.48;100.00;100602.47;5027017;28;20248;-66
2022/09/14 04:22:35;;;;;;;7.35;2.50;;;;;;;14.45;100.00;100610.22;5026330;28;20040;-66
2022/09/14 04:25:00;;;;;;;5.25;2.45;;;;;;;14.40;100.00;100603.25;5020580;28;20050;-66
2022/09/14 04:27:25;;;;;;;5.53;2.65;;;;;;;14.39;100.00;100604.09;5019144;28;20033;-66
2022/09/14 04:29:51;;;;;;;5.63;2.17;;;;;;;14.39;100.00;100601.47;5026330;28;20037;-66
2022/09/14 04:32:16;;;;;;;5.03;1.70;;;;;;;14.38;100.00;100594.53;5033877;28;20040;-66
2022/09/14 04:34:42;;;;;;;4.65;2.05;;;;;;;14.37;100.00;100600.59;5026552;28;20383;-66
2022/09/14 04:37:07;;;;;;;5.68;2.45;;;;;;;14.37;100.00;100595.38;5033019;28;20159;-66
2022/09/14 04:39:33;;;;;;;4.68;1.83;;;;;;;14.35;100.00;100594.50;5026613;28;20105;-66
2022/09/14 04:41:58;;;;;;;6.07;2.33;;;;;;;14.33;100.00;100598.81;5036228;28;20071;-66
2022/09/14 04:44:23;;;;;;;7.60;2.00;;;;;;;14.28;100.00;100590.06;5026350;28;20045;-66
2022/09/14 04:46:49;;;;;;;7.28;1.98;;;;;;;14.25;100.00;100592.63;5026176;28;20071;-66
2022/09/14 04:49:17;;;;;;;8.60;1.88;;;;;;;14.24;100.00;100593.47;5025677;28;20079;-66
2022/09/14 04:51:43;;;;;;;7.57;1.95;;;;;;;14.19;100.00;100596.03;5027655;28;20507;-65
2022/09/14 04:54:13;;;;;;;4.85;1.88;;;;;;;14.16;100.00;100583.84;5029464;28;20025;-65
2022/09/14 04:56:39;;;;;;;6.88;2.63;;;;;;;14.12;100.00;100582.03;5029634;28;20026;-65
2022/09/14 04:59:04;;;;;;;7.95;2.70;;;;;;;14.07;100.00;100570.69;5029967;28;20540;-66
2022/09/14 05:01:39;;;;;;;8.98;3.03;;;;;;;13.99;100.00;100574.91;5029864;28;20425;-65
2022/09/14 05:04:06;;;;;;;4.95;2.55;;;;;;;13.95;100.00;100563.59;5030035;28;20108;-65
2022/09/14 05:06:34;;;;;;;6.25;3.03;;;;;;;13.95;100.00;100567.91;5029798;28;20029;-65
2022/09/14 05:09:00;;;;;;;5.47;2.85;;;;;;;13.93;100.00;100568.78;5028682;28;20264;-65
2022/09/14 05:11:29;;;;;;;9.07;3.08;;;;;;;13.91;100.00;100567.88;5028773;28;20037;-65
2022/09/14 05:13:58;;;;;;;5.18;2.50;;;;;;;13.91;100.00;100554.84;5028760;28;20029;-65
2022/09/14 05:16:31;;;;;;;9.10;2.95;;;;;;;13.84;100.00;100563.44;5028854;28;20021;-65
2022/09/14 05:19:00;;;;;;;5.28;2.58;;;;;;;13.84;100.00;100560.81;5028680;28;20120;-65
2022/09/14 05:21:27;;;;;;;5.35;2.50;;;;;;;13.83;100.00;100556.50;5029111;28;20115;-65
2022/09/14 05:23:57;;;;;;;7.72;2.95;;;;;;;13.81;100.00;100561.66;5029589;28;20036;-65
2022/09/14 05:26:25;;;;;;;8.52;2.80;;;;;;;13.83;100.00;100566.91;5029468;28;20414;-65
2022/09/14 05:28:52;;;;;;;5.60;2.90;;;;;;;13.84;100.00;100562.56;5029651;28;20021;-65
2022/09/14 05:31:19;;;;;;;7.18;2.72;;;;;;;13.79;100.00;100576.41;5028735;28;20029;-65
2022/09/14 05:33:44;;;;;;;6.70;2.38;;;;;;;13.79;100.00;100573.78;5029469;28;20393;-65
2022/09/14 05:36:10;;;;;;;7.97;2.55;;;;;;;13.81;100.00;100571.22;5028970;28;20018;-64
2022/09/14 05:38:38;;;;;;;5.25;2.30;;;;;;;13.83;100.00;100574.72;5028652;28;20021;-65
2022/09/14 05:41:04;;;;;;;4.43;2.30;;;;;;;13.87;100.00;100573.88;5029609;28;20038;-64
2022/09/14 05:43:31;;;;;;;8.13;2.42;;;;;;;13.89;100.00;100576.50;5024282;28;20462;-65
2022/09/14 05:46:01;;;;;;;7.45;2.50;;;;;;;13.92;100.00;100580.03;5009809;28;20033;-65
2022/09/14 05:48:29;;;;;;;7.68;2.80;;;;;;;13.96;100.00;100586.16;5026674;28;20041;-65
2022/09/14 05:51:03;;;;;;;7.05;2.78;;;;;;;13.99;100.00;100577.53;5026364;28;20025;-65
2022/09/14 05:53:29;;;;;;;7.43;3.03;;;;;;;14.02;100.00;100587.97;5030810;28;20460;-65
2022/09/14 05:56:22;;;;;;;6.22;3.08;;;;;;;14.04;100.00;100588.88;5027590;28;20096;-65
2022/09/14 05:58:47;;;;;;;4.15;2.80;;;;;;;14.04;100.00;100578.47;5023861;28;20046;-66
2022/09/14 06:01:18;;;;;;;6.45;3.03;;;;;;;13.99;100.00;100586.22;5028872;28;20041;-65
2022/09/14 06:03:45;;;;;;;6.47;3.03;;;;;;;13.96;100.00;100582.69;5027731;28;20369;-65
2022/09/14 06:06:12;;;;;;;5.13;3.25;;;;;;;13.93;100.00;100587.00;5028613;28;20028;-65
2022/09/14 06:08:38;;;;;;;3.42;2.63;;;;;;;13.90;100.00;100589.59;5028541;28;20022;-65
2022/09/14 06:11:10;;;;;;;4.70;2.50;;;;;;;13.89;100.00;100592.13;5026885;28;20106;-65
2022/09/14 06:13:35;;;;;;;6.80;3.03;;;;;;;13.89;100.00;100592.13;5027977;28;20725;-65
2022/09/14 06:16:09;;;;;;;5.65;2.67;;;;;;;13.89;100.00;100594.75;5028015;28;20132;-65
2022/09/14 06:18:36;;;;;;;4.25;2.30;;;;;;;13.88;100.00;100593.88;5028759;28;20538;-65
2022/09/14 06:21:02;;;;;;;5.45;3.08;;;;;;;13.89;100.00;100598.22;5040965;28;20437;-65
2022/09/14 06:23:28;;;;;;;5.85;2.33;;;;;;;13.88;100.00;100590.41;5026384;28;20022;-65
2022/09/14 06:25:55;;;;;;;7.38;2.17;;;;;;;13.89;100.00;100602.56;5026928;28;20606;-64
2022/09/14 06:28:22;;;;;;;3.80;2.40;;;;;;;13.88;100.00;100600.81;5026520;28;20029;-65
2022/09/14 06:30:48;;;;;;;5.40;2.40;;;;;;;13.86;100.00;100602.53;5026680;28;20185;-65
2022/09/14 06:33:14;;;;;;;4.68;2.40;;;;;;;13.84;100.00;100605.09;5026159;28;20100;-65
2022/09/14 06:35:40;;;;;;;5.25;2.10;;;;;;;13.83;100.00;100595.56;5027226;28;20017;-65
2022/09/14 06:38:06;;;;;;;6.47;2.40;;;;;;;13.81;100.00;100594.66;5027857;28;20108;-65
2022/09/14 06:40:31;;;;;;;5.97;2.50;;;;;;;13.79;100.00;100591.13;5027920;28;20100;-65
2022/09/14 06:43:01;;;;;;;2.75;2.20;;;;;;;13.78;100.00;100597.22;5027764;28;20037;-65
2022/09/14 06:45:28;;;;;;;4.20;2.40;;;;;;;13.79;100.00;100575.53;5009833;28;20099;-65
2022/09/14 06:47:53;;;;;;;6.38;2.78;;;;;;;13.79;100.00;100579.00;5027786;28;20031;-65
2022/09/14 06:50:18;;;;;;;4.43;2.20;;;;;;;13.78;100.00;100571.19;5027669;28;20029;-66
2022/09/14 06:52:44;;;;;;;9.45;2.97;;;;;;;13.75;100.00;100571.09;5028291;28;20033;-65
2022/09/14 06:55:09;;;;;;;4.57;2.50;;;;;;;13.71;100.00;100578.00;5027916;28;20021;-65
2022/09/14 06:57:36;;;;;;;8.02;2.85;;;;;;;13.69;100.00;100570.16;5027443;28;20088;-65
2022/09/14 07:00:03;;;;;;;5.30;2.35;;;;;;;13.69;100.00;100564.97;5027623;28;20025;-65
2022/09/14 07:02:28;;;;;;;5.72;2.67;;;;;;;13.68;100.00;100560.63;5027867;28;20057;-64
2022/09/14 07:04:54;;;;;;;5.13;2.95;;;;;;;13.65;100.00;100557.09;5027675;28;20063;-65
2022/09/14 07:07:19;;;;;;;4.85;2.55;;;;;;;13.64;100.00;100556.22;5028227;28;20021;-65
2022/09/14 07:09:45;;;;;;;4.97;2.72;;;;;;;13.62;100.00;100557.91;5027371;28;20552;-65
2022/09/14 07:12:10;;;;;;;7.13;3.05;;;;;;;13.66;100.00;100564.91;5027909;28;20540;-65
2022/09/14 07:14:37;;;;;;;7.43;2.60;;;;;;;13.65;100.00;100568.34;5027265;28;20021;-65
2022/09/14 07:17:03;;;;;;;5.13;3.28;;;;;;;13.69;100.00;100567.56;5027795;28;20132;-65
2022/09/14 07:19:28;;;;;;;5.00;3.00;;;;;;;13.67;100.00;100566.66;5027300;28;20140;-65
2022/09/14 07:21:54;;;;;;;4.88;3.08;;;;;;;13.68;100.00;100554.53;5027674;28;20037;-65
2022/09/14 07:24:19;;;;;;;7.95;3.28;;;;;;;13.71;100.00;100564.13;5026807;28;20033;-65
2022/09/14 07:26:45;;;;;;;5.18;3.42;;;;;;;13.72;100.00;100556.34;5027126;28;20484;-65
2022/09/14 07:29:15;;;;;;;4.25;2.53;;;;;;;13.74;100.00;100556.34;5027042;28;20104;-65
2022/09/14 07:31:52;;;;;;;4.70;3.00;;;;;;;13.72;100.00;100556.34;5027008;28;20033;-65
2022/09/14 07:34:18;;;;;;;6.28;3.08;;;;;;;13.73;100.00;100563.28;5027058;28;20033;-64
2022/09/14 07:36:44;;;;;;;4.88;3.17;;;;;;;13.72;100.00;100555.44;5026330;28;20028;-65
2022/09/14 07:39:15;;;;;;;5.63;2.85;;;;;;;13.74;100.00;100561.56;5027429;28;20469;-65
2022/09/14 07:41:42;;;;;;;6.75;3.42;;;;;;;13.68;100.00;100552.81;5026785;28;20049;-65
2022/09/14 07:44:08;;;;;;;8.63;3.80;;;;;;;13.69;100.00;100559.75;5026951;28;20064;-65
2022/09/14 07:46:42;;;;;;;7.53;3.67;;;;;;;13.72;100.00;100558.06;5027184;28;20418;-65
2022/09/14 07:49:08;;;;;;;4.72;3.38;;;;;;;13.74;100.00;100549.41;5026671;28;20014;-65
2022/09/14 07:51:35;;;;;;;6.20;3.67;;;;;;;13.76;100.00;100555.50;5027096;28;20029;-65
2022/09/14 07:54:01;;;;;;;6.20;3.63;;;;;;;13.77;100.00;100552.06;5026806;28;20021;-65
2022/09/14 07:56:28;;;;;;;4.68;3.40;;;;;;;13.84;100.00;100557.34;5027277;28;20079;-65
2022/09/14 07:58:55;;;;;;;4.85;3.35;;;;;;;13.87;100.00;100550.44;5027253;28;20456;-65
2022/09/14 08:01:22;;;;;;;6.72;3.63;;;;;;;13.90;100.00;100555.72;5027426;28;20026;-65
2022/09/14 08:03:47;;;;;;;5.95;3.13;;;;;;;13.93;100.00;100550.53;5026574;28;20105;-65
2022/09/14 08:06:21;;;;;;;6.65;3.17;;;;;;;13.93;100.00;100547.94;5026980;28;20112;-65
2022/09/14 08:08:49;;;;;;;4.63;3.05;;;;;;;13.92;100.00;100559.19;5026751;28;20040;-65
2022/09/14 08:11:16;;;;;;;4.93;2.90;;;;;;;13.96;100.00;100556.66;5026663;28;20028;-65
2022/09/14 08:13:45;;;;;;;4.72;3.15;;;;;;;13.98;100.00;100552.31;5026713;28;20112;-65
2022/09/14 08:16:11;;;;;;;8.32;3.88;;;;;;;13.98;100.00;100550.59;5026703;28;20414;-65
2022/09/14 08:18:37;;;;;;;7.18;4.28;;;;;;;13.98;100.00;100544.50;5026267;28;20025;-65
2022/09/14 08:21:05;;;;;;;9.05;4.35;;;;;;;14.00;100.00;100545.41;5027052;28;20025;-65
2022/09/14 08:23:31;;;;;;;6.03;4.10;;;;;;;14.03;100.00;100542.84;5026927;28;20590;-65
2022/09/14 08:26:02;;;;;;;5.97;4.00;;;;;;;14.07;100.00;100543.78;5027077;28;20029;-65
2022/09/14 08:28:27;;;;;;;7.70;4.70;;;;;;;14.08;100.00;100537.69;5030061;28;20029;-65
2022/09/14 08:30:52;;;;;;;7.30;4.35;;;;;;;14.09;100.00;100542.91;5030385;28;20366;-65
2022/09/14 08:33:17;;;;;;;7.00;5.22;;;;;;;14.09;100.00;100548.13;5030000;28;20026;-65
2022/09/14 08:35:43;;;;;;;7.97;5.93;;;;;;;14.10;100.00;100544.69;5030692;28;20347;-65
2022/09/14 08:38:09;;;;;;;7.90;5.75;;;;;;;14.09;100.00;100545.53;5030398;28;20021;-65
2022/09/14 08:40:42;;;;;;;8.65;5.18;;;;;;;14.12;100.00;100557.72;5029792;28;20100;-65
2022/09/14 08:43:10;;;;;;;6.50;5.40;;;;;;;14.13;100.00;100552.53;5012194;28;20044;-65
2022/09/14 08:45:35;;;;;;;10.23;5.97;;;;;;;14.12;100.00;100553.38;5030577;28;20017;-65
2022/09/14 08:48:02;;;;;;;7.80;6.45;;;;;;;14.17;100.00;100551.69;5030373;28;20018;-65
2022/09/14 08:50:29;;;;;;;8.25;6.63;;;;;;;14.22;100.00;100554.38;5029914;28;20587;-65
2022/09/14 08:52:54;;;;;;;9.35;6.75;;;;;;;14.23;100.00;100556.13;5030697;28;20052;-65
2022/09/14 08:55:34;;;;;;;7.90;7.03;;;;;;;14.27;100.00;100562.25;5030514;28;20022;-65
2022/09/14 08:58:08;;;;;;;8.68;6.82;;;;;;;14.27;100.00;100562.25;5030090;28;20090;-65
2022/09/14 09:00:48;;;;;;;9.38;6.80;;;;;;;14.26;100.00;100561.38;5029851;28;20481;-65
2022/09/14 09:03:50;;;;;;;9.75;6.63;;;;;;;14.30;100.00;100564.91;5029443;28;20071;-65
2022/09/14 09:06:47;;;;;;;14.02;7.30;;;;;;;14.34;100.00;100569.28;5030045;28;20021;-65
2022/09/14 09:09:17;;;;;;;11.25;7.60;;;;;;;14.39;100.00;100570.22;5029600;28;20029;-64
2022/09/14 09:11:47;;;;;;;7.80;7.00;;;;;;;14.39;100.00;100561.53;5029242;28;20079;-65
2022/09/14 09:14:36;;;;;;;8.80;7.07;;;;;;;14.42;100.00;100561.56;5029617;28;20394;-65
2022/09/14 09:17:12;;;;;;;10.13;7.00;;;;;;;14.41;100.00;100563.28;5028848;28;20041;-64
2022/09/14 09:20:09;;;;;;;8.93;7.50;;;;;;;14.44;100.00;100558.97;5011357;28;20037;-65
2022/09/14 09:22:40;;;;;;;8.68;7.43;;;;;;;14.45;100.00;100552.88;5026256;28;20041;-65
2022/09/14 09:25:14;;;;;;;7.75;6.50;;;;;;;14.45;100.00;100547.66;5029001;28;20021;-65
2022/09/14 09:27:39;;;;;;;8.85;7.15;;;;;;;14.47;100.00;100553.78;5029359;28;20085;-65
2022/09/14 09:30:06;;;;;;;7.82;6.95;;;;;;;14.46;100.00;100555.53;5029189;28;20108;-65
2022/09/14 09:32:34;;;;;;;10.50;7.07;;;;;;;14.45;100.00;100556.38;5029466;28;20120;-65
2022/09/14 09:35:00;;;;;;;8.13;7.32;;;;;;;14.48;100.00;100559.00;5029162;28;20033;-65
2022/09/14 09:37:25;;;;;;;9.77;7.35;;;;;;;14.46;100.00;100552.03;5029448;28;20061;-66
2022/09/14 09:39:50;;;;;;;12.80;7.30;;;;;;;14.46;100.00;100549.44;5029633;28;20461;-66
2022/09/14 09:42:24;;;;;;;7.72;6.80;;;;;;;14.43;100.00;100546.81;5028544;28;20573;-66
2022/09/14 09:45:01;;;;;;;8.82;6.97;;;;;;;14.41;100.00;100549.38;5029320;28;20025;-66
2022/09/14 09:47:28;;;;;;;10.52;6.88;;;;;;;14.43;100.00;100547.66;5029300;28;20034;-67
2022/09/14 09:50:15;;;;;;;10.63;7.63;;;;;;;14.44;100.00;100548.53;5029598;28;20042;-66
2022/09/14 09:52:53;;;;;;;8.48;7.68;;;;;;;14.48;100.00;100550.34;5029105;28;20032;-66
2022/09/14 09:55:25;;;;;;;8.07;7.18;;;;;;;14.49;100.00;100554.69;5029209;28;20099;-66
2022/09/14 09:57:52;;;;;;;10.57;7.35;;;;;;;14.49;100.00;100559.91;5029381;28;20374;-67
2022/09/14 10:00:23;;;;;;;7.65;6.90;;;;;;;14.50;100.00;100553.81;5028842;28;20528;-67
2022/09/14 10:02:49;;;;;;;12.68;7.45;;;;;;;14.49;100.00;100554.69;5028947;28;20017;-66
2022/09/14 10:05:31;;;;;;;9.40;6.95;;;;;;;14.52;100.00;100552.09;5029229;28;20025;-66
2022/09/14 10:08:01;;;;;;;13.43;7.53;;;;;;;14.54;100.00;100545.16;5029402;28;20488;-66
2022/09/14 10:10:33;;;;;;;7.93;7.05;;;;;;;14.55;100.00;100557.38;5028655;28;20620;-66
2022/09/14 10:12:59;;;;;;;7.70;6.95;;;;;;;14.59;100.00;100558.28;5028604;28;20385;-66
2022/09/14 10:15:27;;;;;;;10.32;6.95;;;;;;;14.62;100.00;100558.31;5028582;28;20034;-66
2022/09/14 10:17:55;;;;;;;9.38;7.50;;;;;;;14.69;100.00;100557.50;5029053;28;20044;-66
2022/09/14 10:20:23;;;;;;;8.93;8.05;;;;;;;14.73;100.00;100553.19;5028643;28;20034;-66
2022/09/14 10:22:48;;;;;;;11.13;7.72;;;;;;;14.79;100.00;100550.63;5028943;28;20025;-66
2022/09/14 10:25:13;;;;;;;10.00;7.90;;;;;;;14.81;100.00;100548.97;5028610;28;20482;-66
2022/09/14 10:27:40;;;;;;;11.35;8.23;;;;;;;14.88;100.00;100544.66;5027950;28;20037;-66
2022/09/14 10:30:14;;;;;;;10.05;8.45;;;;;;;14.92;100.00;100551.69;5028486;28;20040;-66
2022/09/14 10:32:44;;;;;;;10.35;7.85;;;;;;;14.92;100.00;100558.63;5028412;28;20488;-66
2022/09/14 10:35:14;;;;;;;9.00;7.82;;;;;;;14.88;100.00;100539.44;5028077;28;20515;-67
2022/09/14 10:38:06;;;;;;;9.23;8.23;;;;;;;14.76;100.00;100551.50;5028626;28;20029;-66
2022/09/14 10:40:38;;;;;;;9.30;8.38;;;;;;;14.76;100.00;100546.28;5028318;28;20055;-66
2022/09/14 10:43:19;;;;;;;8.30;7.40;;;;;;;14.71;100.00;100540.16;5028396;28;20053;-66
2022/09/14 10:45:57;;;;;;;9.38;8.48;;;;;;;14.59;100.00;100548.69;5027659;28;20558;-66
2022/09/14 10:48:35;;;;;;;9.38;8.48;;;;;;;14.56;100.00;100538.25;5027893;28;20428;-67
2022/09/14 10:51:22;;;;;;;11.98;8.55;;;;;;;14.56;100.00;100538.25;5027712;28;20018;-66
2022/09/14 10:54:09;;;;;;;8.45;7.68;;;;;;;14.56;100.00;100543.47;5027863;28;20021;-66
2022/09/14 10:56:56;;;;;;;10.07;9.07;;;;;;;14.56;100.00;100543.47;5009905;28;20132;-67
2022/09/14 10:59:51;;;;;;;13.70;8.50;;;;;;;14.55;100.00;100533.03;5027630;28;20032;-66
2022/09/14 11:02:23;;;;;;;8.32;7.53;;;;;;;14.55;100.00;100536.50;5027500;28;20025;-66
2022/09/14 11:05:08;;;;;;;9.85;8.85;;;;;;;14.56;100.00;100540.84;5028062;28;20563;-66
2022/09/14 11:08:02;;;;;;;9.13;8.23;;;;;;;14.53;100.00;100538.22;5027852;28;20040;-66
2022/09/14 11:11:03;;;;;;;9.68;8.77;;;;;;;14.51;100.00;100534.72;5027313;28;20037;-66
2022/09/14 11:13:54;;;;;;;11.70;9.80;;;;;;;14.57;100.00;100533.91;4971247;28;20094;-66
2022/09/14 11:16:46;;;;;;;10.57;9.57;;;;;;;14.61;100.00;100526.13;5040819;28;20026;-67
2022/09/14 11:19:50;;;;;;;10.55;9.55;;;;;;;14.58;100.00;100530.44;5027238;28;20492;-67
2022/09/14 11:22:32;;;;;;;10.73;9.73;;;;;;;14.61;100.00;100526.13;5027968;28;20521;-66
2022/09/14 11:25:43;;;;;;;8.65;7.80;;;;;;;14.59;100.00;100527.00;5027602;28;20136;-66
2022/09/14 11:28:23;;;;;;;7.45;6.70;;;;;;;14.57;100.00;100524.34;4962204;28;20071;-66
2022/09/14 11:31:02;;;;;;;6.33;5.50;;;;;;;14.49;100.00;100521.66;4958742;28;20031;-67